Dades meteomassalio
Diari Summary for Gener 3, 2017 Units:  English    Metric   Both
« Previous Day
Next Day »
Diari Semanal Mensual Anual Personalitzat
  Maxima: Minima: Mijana:
Temperatura: 39.7 °F 29.1 °F 33.4 °F
Rosada: 38.7 °F 27.9 °F 32.2 °F
Humitat: 96 % 95 % 95 %
Velocitat del vent: 0 mph 0 mph 0 mph
Racha vent: 0 mph - -
Vent:- - North
Pressio: 30.4 in 30.3 in -
Pluja: 0 in    
Historical Graphs
 
 
Tabular Data for Gener 3, 2017
Time Temperature Dew Point Pressure Wind Wind Speed Wind Gust Humidity Rainfall Rate (Hourly) solar Conditions
00:04 32.2 °F 30.7 °F 30.3 in Calm     95 % 0 in 0.0 W/m2 RA
00:09 32.2 °F 30.7 °F 30.3 in Calm     95 % 0 in 0.0 W/m2 CLR
00:14 32.2 °F 30.7 °F 30.3 in Calm     95 % 0 in 0.0 W/m2 CLR
00:19 32.2 °F 30.7 °F 30.3 in Calm     95 % 0 in 0.0 W/m2 CLR
00:24 32.2 °F 30.7 °F 30.3 in Calm     95 % 0 in 0.0 W/m2 CLR
00:29 32.2 °F 30.7 °F 30.3 in Calm     95 % 0 in 0.0 W/m2 CLR
00:34 32.2 °F 30.7 °F 30.3 in Calm     95 % 0 in 0.0 W/m2 CLR
00:39 32.2 °F 30.7 °F 30.3 in Calm     95 % 0 in 0.0 W/m2 CLR
00:44 32 °F 30.7 °F 30.3 in Calm     95 % 0 in 0.0 W/m2 CLR
00:49 32 °F 30.7 °F 30.3 in Calm     95 % 0 in 0.0 W/m2 CLR
00:54 31.8 °F 30.6 °F 30.3 in Calm     95 % 0 in 0.0 W/m2 CLR
00:59 31.8 °F 30.6 °F 30.3 in Calm     95 % 0 in 0.0 W/m2 CLR
01:04 31.6 °F 30.4 °F 30.3 in Calm     95 % 0 in 0.0 W/m2 CLR
01:09 31.6 °F 30.4 °F 30.3 in Calm     95 % 0 in 0.0 W/m2 CLR
01:14 31.5 °F 30.2 °F 30.3 in Calm     95 % 0 in 0.0 W/m2 CLR
01:19 31.5 °F 30.2 °F 30.3 in Calm     95 % 0 in 0.0 W/m2 CLR
01:24 31.5 °F 30.2 °F 30.3 in Calm     95 % 0 in 0.0 W/m2 CLR
01:29 31.5 °F 30.2 °F 30.3 in Calm     95 % 0 in 0.0 W/m2 CLR
01:34 31.6 °F 30.4 °F 30.3 in Calm     95 % 0 in 0.0 W/m2 CLR
01:39 31.6 °F 30.4 °F 30.3 in Calm     95 % 0 in 0.0 W/m2 CLR
01:44 31.5 °F 30.2 °F 30.3 in Calm     95 % 0 in 0.0 W/m2 CLR
01:49 31.5 °F 30.2 °F 30.3 in Calm     95 % 0 in 0.0 W/m2 CLR
01:54 31.5 °F 30.2 °F 30.3 in Calm     95 % 0 in 0.0 W/m2 CLR
01:59 31.5 °F 30.2 °F 30.3 in Calm     95 % 0 in 0.0 W/m2 CLR
02:04 31.5 °F 30.2 °F 30.3 in Calm     95 % 0 in 0.0 W/m2 CLR
02:09 31.3 °F 30 °F 30.3 in Calm     95 % 0 in 0.0 W/m2 CLR
02:14 31.3 °F 29.8 °F 30.3 in Calm     95 % 0 in 0.0 W/m2 CLR
02:19 31.3 °F 29.8 °F 30.3 in Calm     95 % 0 in 0.0 W/m2 CLR
02:24 31.3 °F 30 °F 30.3 in Calm     95 % 0 in 0.0 W/m2 CLR
02:29 31.3 °F 30 °F 30.3 in Calm     95 % 0 in 0.0 W/m2 CLR
02:34 31.3 °F 30 °F 30.3 in Calm     95 % 0 in 0.0 W/m2 CLR
02:39 31.5 °F 30 °F 30.3 in Calm     95 % 0 in 0.0 W/m2 CLR
02:45 31.3 °F 30 °F 30.3 in Calm     95 % 0 in 0.0 W/m2 CLR
02:50 31.5 °F 30 °F 30.3 in Calm     95 % 0 in 0.0 W/m2 CLR
02:55 31.3 °F 30 °F 30.3 in Calm     95 % 0 in 0.0 W/m2 CLR
03:00 31.3 °F 30 °F 30.3 in Calm     95 % 0 in 0.0 W/m2 CLR
03:05 31.1 °F 29.8 °F 30.3 in Calm     95 % 0 in 0.0 W/m2 CLR
03:10 31.1 °F 29.8 °F 30.3 in Calm     95 % 0 in 0.0 W/m2 CLR
03:15 31.1 °F 29.8 °F 30.3 in Calm     95 % 0 in 0.0 W/m2 CLR
03:20 31.3 °F 29.8 °F 30.3 in Calm     95 % 0 in 0.0 W/m2 CLR
03:25 31.3 °F 29.8 °F 30.3 in Calm     95 % 0 in 0.0 W/m2 CLR
03:30 31.3 °F 29.8 °F 30.3 in Calm     95 % 0 in 0.0 W/m2 CLR
03:35 31.3 °F 29.8 °F 30.3 in Calm     95 % 0 in 0.0 W/m2 CLR
03:40 31.3 °F 30 °F 30.3 in Calm     95 % 0 in 0.0 W/m2 CLR
03:45 31.5 °F 30 °F 30.3 in Calm     95 % 0 in 0.0 W/m2 CLR
03:50 31.5 °F 30 °F 30.3 in Calm     95 % 0 in 0.0 W/m2 CLR
03:55 31.5 °F 30.2 °F 30.3 in Calm     95 % 0 in 0.0 W/m2 CLR
04:00 31.5 °F 30.2 °F 30.3 in Calm     95 % 0 in 0.0 W/m2 CLR
04:05 31.6 °F 30.4 °F 30.3 in Calm     95 % 0 in 0.0 W/m2 CLR
04:10 31.6 °F 30.4 °F 30.3 in Calm     95 % 0 in 0.0 W/m2 CLR
04:15 31.6 °F 30.4 °F 30.3 in Calm     95 % 0 in 0.0 W/m2 CLR
04:20 31.5 °F 30.2 °F 30.3 in Calm     95 % 0 in 0.0 W/m2 CLR
04:25 31.5 °F 30.2 °F 30.3 in Calm     95 % 0 in 0.0 W/m2 CLR
04:30 31.6 °F 30.4 °F 30.3 in Calm     95 % 0 in 0.0 W/m2 CLR
04:35 31.6 °F 30.4 °F 30.3 in Calm     95 % 0 in 0.0 W/m2 CLR
04:40 31.6 °F 30.4 °F 30.3 in Calm     95 % 0 in 0.0 W/m2 CLR
04:45 31.6 °F 30.4 °F 30.3 in Calm     95 % 0 in 0.0 W/m2 CLR
04:50 31.6 °F 30.4 °F 30.3 in Calm     95 % 0 in 0.0 W/m2 CLR
05:00 31.5 °F 30.2 °F 30.3 in Calm     95 % 0 in 0.0 W/m2 CLR
05:05 31.5 °F 30.2 °F 30.3 in Calm     95 % 0 in 0.0 W/m2 CLR
05:10 31.5 °F 30.2 °F 30.3 in Calm     95 % 0 in 0.0 W/m2 CLR
05:15 31.5 °F 30.2 °F 30.3 in Calm     95 % 0 in 0.0 W/m2 CLR
05:20 31.5 °F 30.2 °F 30.3 in Calm     95 % 0 in 0.0 W/m2 CLR
05:25 31.5 °F 30.2 °F 30.3 in Calm     95 % 0 in 0.0 W/m2 CLR
05:30 31.5 °F 30 °F 30.3 in Calm     95 % 0 in 0.0 W/m2 CLR
05:35 31.3 °F 30 °F 30.3 in Calm     95 % 0 in 0.0 W/m2 CLR
05:40 31.1 °F 29.8 °F 30.3 in Calm     95 % 0 in 0.0 W/m2 CLR
05:45 30.9 °F 29.7 °F 30.3 in Calm     95 % 0 in 0.0 W/m2 CLR
05:50 30.9 °F 29.7 °F 30.3 in Calm     95 % 0 in 0.0 W/m2 CLR
05:55 30.9 °F 29.7 °F 30.3 in Calm     95 % 0 in 0.0 W/m2 CLR
06:00 30.9 °F 29.7 °F 30.3 in Calm     95 % 0 in 0.0 W/m2 CLR
06:05 31.1 °F 29.8 °F 30.3 in Calm     95 % 0 in 0.0 W/m2 CLR
06:10 31.3 °F 29.8 °F 30.3 in Calm     95 % 0 in 0.0 W/m2 CLR
06:15 31.3 °F 29.8 °F 30.3 in Calm     95 % 0 in 0.0 W/m2 CLR
06:20 31.1 °F 29.8 °F 30.3 in Calm     95 % 0 in 0.0 W/m2 CLR
06:25 31.1 °F 29.8 °F 30.3 in Calm     95 % 0 in 0.0 W/m2 CLR
06:30 31.1 °F 29.8 °F 30.3 in Calm     95 % 0 in 0.0 W/m2 CLR
06:35 31.1 °F 29.8 °F 30.3 in Calm     95 % 0 in 0.0 W/m2 CLR
06:40 30.9 °F 29.7 °F 30.3 in Calm     95 % 0 in 0.0 W/m2 CLR
06:45 30.7 °F 29.5 °F 30.3 in Calm     95 % 0 in 0.0 W/m2 CLR
06:50 30.6 °F 29.3 °F 30.3 in Calm     95 % 0 in 0.0 W/m2 CLR
06:55 30.6 °F 29.1 °F 30.3 in Calm     95 % 0 in 0.0 W/m2 CLR
07:00 30.4 °F 28.9 °F 30.3 in Calm     95 % 0 in 0.0 W/m2 CLR
07:05 30.2 °F 28.9 °F 30.3 in Calm     95 % 0 in 0.0 W/m2 CLR
07:10 30.2 °F 28.9 °F 30.3 in Calm     95 % 0 in 0.0 W/m2 CLR
07:15 30.4 °F 28.9 °F 30.3 in Calm     95 % 0 in 0.0 W/m2 CLR
07:20 30.4 °F 28.9 °F 30.3 in Calm     95 % 0 in 0.0 W/m2 CLR
07:25 30.4 °F 28.9 °F 30.3 in Calm     95 % 0 in 0.0 W/m2 CLR
07:30 30.2 °F 28.9 °F 30.3 in Calm     95 % 0 in 0.0 W/m2 CLR
07:35 30.2 °F 28.9 °F 30.3 in Calm     95 % 0 in 0.0 W/m2 CLR
07:40 30 °F 28.8 °F 30.3 in Calm     95 % 0 in 0.0 W/m2 CLR
07:45 30 °F 28.8 °F 30.3 in Calm     95 % 0 in 0.0 W/m2 CLR
07:50 30 °F 28.8 °F 30.3 in Calm     95 % 0 in 0.0 W/m2 CLR
07:55 29.8 °F 28.6 °F 30.3 in Calm     95 % 0 in 0.0 W/m2 CLR
08:00 29.8 °F 28.6 °F 30.3 in Calm     95 % 0 in 0.0 W/m2 CLR
08:05 29.8 °F 28.6 °F 30.3 in Calm     95 % 0 in 0.0 W/m2 CLR
08:06 29.8 °F 28.6 °F 30.3 in Calm     95 % 0 in 0.0 W/m2 CLR
08:11 29.8 °F 28.6 °F 30.3 in Calm     95 % 0 in 0.0 W/m2 CLR
08:16 29.8 °F 28.6 °F 30.3 in Calm     95 % 0 in 0.0 W/m2 CLR
08:21 29.8 °F 28.6 °F 30.3 in Calm     95 % 0 in 0.0 W/m2 CLR
08:26 29.8 °F 28.6 °F 30.3 in Calm     95 % 0 in 0.0 W/m2 OVC
08:31 29.8 °F 28.6 °F 30.3 in Calm     95 % 0 in 5.0 W/m2 BKN
08:36 29.8 °F 28.6 °F 30.3 in Calm     95 % 0 in 9.0 W/m2 BKN
08:41 29.7 °F 28.4 °F 30.3 in Calm     95 % 0 in 11.0 W/m2 BKN
08:46 29.7 °F 28.4 °F 30.3 in Calm     95 % 0 in 12.0 W/m2 BKN
08:51 29.7 °F 28.2 °F 30.3 in Calm     95 % 0 in 12.0 W/m2 BKN
08:56 29.5 °F 28.2 °F 30.3 in Calm     95 % 0 in 14.0 W/m2 BKN
09:01 29.3 °F 28 °F 30.4 in Calm     95 % 0 in 16.0 W/m2 BKN
09:06 29.1 °F 27.9 °F 30.4 in Calm     95 % 0 in 21.0 W/m2 BKN
09:11 29.1 °F 27.9 °F 30.4 in Calm     95 % 0 in 42.0 W/m2 BKN
09:16 29.1 °F 27.9 °F 30.4 in Calm     95 % 0 in 54.0 W/m2 BKN
09:21 29.3 °F 28 °F 30.4 in Calm     95 % 0 in 44.0 W/m2 BKN
09:26 29.5 °F 28 °F 30.4 in Calm     95 % 0 in 35.0 W/m2 BKN
09:31 29.7 °F 28.2 °F 30.4 in Calm     95 % 0 in 47.0 W/m2 BKN
09:36 29.7 °F 28.2 °F 30.4 in Calm     95 % 0 in 46.0 W/m2 BKN
09:41 29.7 °F 28.4 °F 30.4 in Calm     95 % 0 in 77.0 W/m2 BKN
09:46 29.8 °F 28.6 °F 30.4 in Calm     95 % 0 in 65.0 W/m2 BKN
09:51 29.8 °F 28.6 °F 30.4 in Calm     95 % 0 in 70.0 W/m2 BKN
09:56 30 °F 28.8 °F 30.4 in Calm     95 % 0 in 90.0 W/m2 BKN
10:01 30 °F 28.8 °F 30.4 in Calm     95 % 0 in 90.0 W/m2 BKN
10:06 30.2 °F 28.9 °F 30.4 in Calm     95 % 0 in 84.0 W/m2 BKN
10:11 30.4 °F 28.9 °F 30.4 in Calm     95 % 0 in 97.0 W/m2 BKN
10:16 30.4 °F 29.1 °F 30.4 in Calm     95 % 0 in 88.0 W/m2 BKN
10:21 30.4 °F 29.1 °F 30.4 in Calm     95 % 0 in 90.0 W/m2 BKN
10:26 30.6 °F 29.1 °F 30.4 in Calm     95 % 0 in 100.0 W/m2 BKN
10:31 30.6 °F 29.1 °F 30.4 in Calm     95 % 0 in 102.0 W/m2 BKN
10:36 30.6 °F 29.1 °F 30.4 in Calm     95 % 0 in 104.0 W/m2 BKN
10:41 30.6 °F 29.3 °F 30.4 in Calm     95 % 0 in 97.0 W/m2 BKN
10:46 30.7 °F 29.5 °F 30.4 in Calm     95 % 0 in 111.0 W/m2 BKN
10:51 30.7 °F 29.5 °F 30.4 in Calm     95 % 0 in 100.0 W/m2 BKN
10:56 30.9 °F 29.7 °F 30.4 in Calm     95 % 0 in 118.0 W/m2 BKN
11:01 30.9 °F 29.7 °F 30.4 in Calm     95 % 0 in 178.0 W/m2 BKN
11:06 31.3 °F 29.8 °F 30.4 in Calm     95 % 0 in 172.0 W/m2 BKN
11:11 31.6 °F 30.4 °F 30.4 in Calm     95 % 0 in 135.0 W/m2 BKN
11:16 31.6 °F 30.4 °F 30.4 in Calm     95 % 0 in 146.0 W/m2 BKN
11:21 31.6 °F 30.4 °F 30.4 in Calm     95 % 0 in 178.0 W/m2 BKN
11:26 31.6 °F 30.4 °F 30.4 in Calm     95 % 0 in 185.0 W/m2 BKN
11:31 32 °F 30.7 °F 30.4 in Calm     95 % 0 in 165.0 W/m2 BKN
11:36 32.4 °F 30.9 °F 30.4 in Calm     95 % 0 in 149.0 W/m2 BKN
11:41 32.5 °F 31.5 °F 30.4 in Calm     96 % 0 in 158.0 W/m2 BKN
11:46 32.7 °F 31.6 °F 30.4 in Calm     96 % 0 in 156.0 W/m2 BKN
11:51 32.7 °F 31.6 °F 30.4 in Calm     96 % 0 in 162.0 W/m2 BKN
11:56 32.7 °F 31.5 °F 30.4 in Calm     95 % 0 in 153.0 W/m2 BKN
12:01 32.9 °F 31.6 °F 30.4 in Calm     95 % 0 in 146.0 W/m2 BKN
12:06 32.9 °F 31.6 °F 30.4 in Calm     95 % 0 in 163.0 W/m2 BKN
12:11 33.1 °F 31.8 °F 30.4 in Calm     95 % 0 in 146.0 W/m2 BKN
12:16 33.1 °F 31.8 °F 30.4 in Calm     95 % 0 in 181.0 W/m2 BKN
12:22 33.3 °F 32.2 °F 30.4 in Calm     96 % 0 in 167.0 W/m2 BKN
12:27 33.4 °F 32.2 °F 30.4 in Calm     95 % 0 in 167.0 W/m2 BKN
12:32 33.8 °F 32.7 °F 30.4 in Calm     96 % 0 in 185.0 W/m2 BKN
12:37 33.8 °F 32.7 °F 30.4 in Calm     96 % 0 in 174.0 W/m2 BKN
12:42 34 °F 32.5 °F 30.4 in Calm     95 % 0 in 178.0 W/m2 BKN
12:47 34 °F 32.9 °F 30.4 in Calm     96 % 0 in 193.0 W/m2 BKN
12:52 34.2 °F 32.7 °F 30.4 in Calm     95 % 0 in 160.0 W/m2 BKN
12:57 34.3 °F 33.3 °F 30.4 in Calm     96 % 0 in 137.0 W/m2 BKN
13:02 34.3 °F 33.4 °F 30.4 in Calm     96 % 0 in 169.0 W/m2 BKN
13:07 34.5 °F 33.3 °F 30.3 in Calm     95 % 0 in 193.0 W/m2 BKN
13:12 34.5 °F 33.3 °F 30.3 in Calm     95 % 0 in 186.0 W/m2 BKN
13:17 34.5 °F 33.3 °F 30.3 in Calm     95 % 0 in 160.0 W/m2 BKN
13:22 34.5 °F 33.3 °F 30.3 in Calm     95 % 0 in 207.0 W/m2 BKN
13:27 34.7 °F 33.4 °F 30.3 in Calm     95 % 0 in 216.0 W/m2 BKN
13:32 35.1 °F 33.8 °F 30.3 in Calm     95 % 0 in 204.0 W/m2 BKN
13:37 35.2 °F 34 °F 30.3 in Calm     95 % 0 in 162.0 W/m2 BKN
13:42 35.6 °F 34.5 °F 30.3 in Calm     96 % 0 in 176.0 W/m2 BKN
13:47 35.6 °F 34.5 °F 30.3 in Calm     96 % 0 in 174.0 W/m2 BKN
13:52 35.4 °F 34.5 °F 30.3 in Calm     96 % 0 in 190.0 W/m2 BKN
13:57 35.8 °F 34.9 °F 30.3 in Calm     96 % 0 in 174.0 W/m2 BKN
14:02 35.8 °F 34.5 °F 30.3 in Calm     95 % 0 in 179.0 W/m2 BKN
14:07 36 °F 34.5 °F 30.3 in Calm     95 % 0 in 185.0 W/m2 BKN
14:12 35.8 °F 34.5 °F 30.3 in Calm     95 % 0 in 193.0 W/m2 BKN
14:17 35.8 °F 34.5 °F 30.3 in Calm     95 % 0 in 179.0 W/m2 BKN
14:22 36.1 °F 34.9 °F 30.3 in Calm     95 % 0 in 192.0 W/m2 BKN
14:27 36.3 °F 35.1 °F 30.3 in Calm     95 % 0 in 227.0 W/m2 BKN
14:32 36.3 °F 35.1 °F 30.3 in Calm     95 % 0 in 216.0 W/m2 SCT
14:37 36.5 °F 35.4 °F 30.3 in Calm     96 % 0 in 199.0 W/m2 SCT
14:42 36.7 °F 35.8 °F 30.3 in Calm     96 % 0 in 195.0 W/m2 SCT
14:47 36.9 °F 36 °F 30.3 in Calm     96 % 0 in 158.0 W/m2 SCT
14:52 37 °F 35.8 °F 30.3 in Calm     95 % 0 in 230.0 W/m2 SCT
14:57 37.2 °F 36.1 °F 30.3 in Calm     96 % 0 in 190.0 W/m2 SCT
15:02 37.2 °F 36.3 °F 30.3 in Calm     96 % 0 in 192.0 W/m2 SCT
15:07 37.2 °F 36.3 °F 30.3 in Calm     96 % 0 in 118.0 W/m2 SCT
15:12 37.2 °F 36.3 °F 30.3 in Calm     96 % 0 in 128.0 W/m2 BKN
15:17 37.4 °F 36.3 °F 30.3 in Calm     96 % 0 in 104.0 W/m2 BKN
15:22 37.6 °F 36.5 °F 30.3 in Calm     96 % 0 in 77.0 W/m2 BKN
15:27 37.8 °F 36.3 °F 30.3 in Calm     95 % 0 in 91.0 W/m2 BKN
15:32 37.8 °F 36.9 °F 30.3 in Calm     96 % 0 in 167.0 W/m2 BKN
15:37 38.3 °F 37 °F 30.3 in Calm     95 % 0 in 146.0 W/m2 SCT
15:42 38.5 °F 37.6 °F 30.3 in Calm     96 % 0 in 116.0 W/m2 SCT
15:47 38.7 °F 37.2 °F 30.3 in Calm     95 % 0 in 67.0 W/m2 SCT
15:52 38.7 °F 37.2 °F 30.3 in Calm     95 % 0 in 79.0 W/m2 BKN
15:57 38.8 °F 37.6 °F 30.3 in Calm     95 % 0 in 113.0 W/m2 BKN
16:02 39 °F 37.9 °F 30.3 in Calm     96 % 0 in 84.0 W/m2 SCT
16:07 39.4 °F 37.9 °F 30.3 in Calm     95 % 0 in 63.0 W/m2 SCT
16:12 39.4 °F 38.1 °F 30.3 in Calm     95 % 0 in 63.0 W/m2 BKN
16:17 39.4 °F 38.1 °F 30.3 in Calm     95 % 0 in 70.0 W/m2 BKN
16:22 39.6 °F 38.1 °F 30.3 in Calm     95 % 0 in 81.0 W/m2 SCT
16:27 39.7 °F 38.7 °F 30.3 in Calm     96 % 0 in 65.0 W/m2 SCT
16:32 39.7 °F 38.5 °F 30.3 in Calm     95 % 0 in 62.0 W/m2 SCT
16:37 39.7 °F 38.5 °F 30.3 in Calm     95 % 0 in 60.0 W/m2 FEW
16:42 39.7 °F 38.5 °F 30.3 in Calm     95 % 0 in 49.0 W/m2 CLR
16:47 39.6 °F 38.3 °F 30.3 in Calm     95 % 0 in 49.0 W/m2 CLR
16:52 39.6 °F 38.1 °F 30.3 in Calm     95 % 0 in 51.0 W/m2 CLR
16:57 39.6 °F 38.1 °F 30.3 in Calm     95 % 0 in 44.0 W/m2 OVC
17:02 39.4 °F 38.1 °F 30.3 in Calm     95 % 0 in 39.0 W/m2 OVC
17:07 39.4 °F 38.1 °F 30.3 in Calm     95 % 0 in 39.0 W/m2 OVC
17:12 39.6 °F 38.1 °F 30.3 in Calm     95 % 0 in 33.0 W/m2 OVC
17:17 39.4 °F 38.1 °F 30.3 in Calm     95 % 0 in 23.0 W/m2 OVC
17:22 39.4 °F 37.9 °F 30.3 in Calm     95 % 0 in 19.0 W/m2 OVC
17:27 39.4 °F 37.9 °F 30.3 in Calm     95 % 0 in 14.0 W/m2 OVC
17:32 39.2 °F 37.9 °F 30.3 in Calm     95 % 0 in 12.0 W/m2 OVC
17:37 39 °F 37.8 °F 30.3 in Calm     95 % 0 in 9.0 W/m2 OVC
17:42 39 °F 37.8 °F 30.3 in Calm     95 % 0 in 5.0 W/m2 OVC
17:47 39 °F 37.8 °F 30.3 in Calm     95 % 0 in 0.0 W/m2 CLR
17:53 38.7 °F 37.4 °F 30.3 in Calm     95 % 0 in 0.0 W/m2 CLR
17:58 38.3 °F 37 °F 30.3 in Calm     95 % 0 in 0.0 W/m2 CLR
18:03 38.5 °F 37 °F 30.3 in Calm     95 % 0 in 0.0 W/m2 CLR
18:08 38.5 °F 37 °F 30.3 in Calm     95 % 0 in 0.0 W/m2 CLR
18:13 38.3 °F 37 °F 30.3 in Calm     95 % 0 in 0.0 W/m2 CLR
18:18 37.9 °F 36.7 °F 30.3 in Calm     95 % 0 in 0.0 W/m2 CLR
18:23 37.6 °F 36.1 °F 30.3 in Calm     95 % 0 in 0.0 W/m2 CLR
18:28 37.2 °F 36 °F 30.3 in Calm     95 % 0 in 0.0 W/m2 CLR
18:33 37 °F 35.8 °F 30.3 in Calm     95 % 0 in 0.0 W/m2 CLR
18:38 37 °F 35.8 °F 30.3 in Calm     95 % 0 in 0.0 W/m2 CLR
18:43 37 °F 35.8 °F 30.3 in Calm     95 % 0 in 0.0 W/m2 CLR
18:48 37.2 °F 36 °F 30.3 in Calm     95 % 0 in 0.0 W/m2 CLR
18:58 37 °F 35.8 °F 30.3 in Calm     95 % 0 in 0.0 W/m2 CLR
19:03 37 °F 35.8 °F 30.3 in Calm     95 % 0 in 0.0 W/m2 CLR
19:08 37.2 °F 36 °F 30.3 in Calm     95 % 0 in 0.0 W/m2 CLR
19:13 37.2 °F 36 °F 30.3 in Calm     95 % 0 in 0.0 W/m2 CLR
19:18 37.2 °F 36 °F 30.3 in Calm     95 % 0 in 0.0 W/m2 CLR
19:23 37.2 °F 36 °F 30.3 in Calm     95 % 0 in 0.0 W/m2 CLR
19:28 37 °F 35.8 °F 30.3 in Calm     95 % 0 in 0.0 W/m2 CLR
19:33 37 °F 35.8 °F 30.3 in Calm     95 % 0 in 0.0 W/m2 CLR
19:38 37 °F 35.8 °F 30.3 in Calm     95 % 0 in 0.0 W/m2 CLR
19:43 37 °F 35.8 °F 30.3 in Calm     95 % 0 in 0.0 W/m2 CLR
19:48 36.9 °F 35.6 °F 30.3 in Calm     95 % 0 in 0.0 W/m2 CLR
19:53 37 °F 35.8 °F 30.3 in Calm     95 % 0 in 0.0 W/m2 CLR
19:58 37.2 °F 36 °F 30.3 in Calm     95 % 0 in 0.0 W/m2 CLR
20:03 37 °F 35.8 °F 30.3 in Calm     95 % 0 in 0.0 W/m2 CLR
20:08 36.5 °F 35.2 °F 30.3 in Calm     95 % 0 in 0.0 W/m2 CLR
20:13 36.3 °F 35.1 °F 30.3 in Calm     95 % 0 in 0.0 W/m2 CLR
20:18 36.3 °F 35.1 °F 30.3 in Calm     95 % 0 in 0.0 W/m2 CLR
20:23 36.1 °F 34.9 °F 30.3 in Calm     95 % 0 in 0.0 W/m2 CLR
20:28 36 °F 34.7 °F 30.3 in Calm     95 % 0 in 0.0 W/m2 CLR
20:33 35.8 °F 34.5 °F 30.3 in Calm     95 % 0 in 0.0 W/m2 CLR
20:38 35.8 °F 34.3 °F 30.3 in Calm     95 % 0 in 0.0 W/m2 CLR
20:43 35.6 °F 34.3 °F 30.3 in Calm     95 % 0 in 0.0 W/m2 CLR
20:48 35.4 °F 34.2 °F 30.4 in Calm     95 % 0 in 0.0 W/m2 CLR
20:53 35.2 °F 34 °F 30.3 in Calm     95 % 0 in 0.0 W/m2 CLR
20:58 35.1 °F 33.6 °F 30.3 in Calm     95 % 0 in 0.0 W/m2 CLR
21:03 34.9 °F 33.4 °F 30.3 in Calm     95 % 0 in 0.0 W/m2 CLR
21:08 34.9 °F 33.4 °F 30.3 in Calm     95 % 0 in 0.0 W/m2 CLR
21:13 34.9 °F 33.4 °F 30.3 in Calm     95 % 0 in 0.0 W/m2 CLR
21:18 34.5 °F 33.3 °F 30.3 in Calm     95 % 0 in 0.0 W/m2 CLR
21:23 34.2 °F 32.9 °F 30.3 in Calm     95 % 0 in 0.0 W/m2 CLR
21:28 33.8 °F 32.5 °F 30.3 in Calm     95 % 0 in 0.0 W/m2 CLR
21:33 33.4 °F 32.2 °F 30.3 in Calm     95 % 0 in 0.0 W/m2 CLR
21:38 33.4 °F 32.2 °F 30.3 in Calm     95 % 0 in 0.0 W/m2 CLR
21:43 33.1 °F 31.8 °F 30.3 in Calm     95 % 0 in 0.0 W/m2 CLR
21:48 33.1 °F 31.8 °F 30.4 in Calm     95 % 0 in 0.0 W/m2 CLR
21:53 33.1 °F 31.8 °F 30.4 in Calm     95 % 0 in 0.0 W/m2 CLR
21:58 33.3 °F 31.8 °F 30.4 in Calm     95 % 0 in 0.0 W/m2 CLR
22:03 33.3 °F 32 °F 30.4 in Calm     95 % 0 in 0.0 W/m2 CLR
22:08 33.3 °F 32 °F 30.4 in Calm     95 % 0 in 0.0 W/m2 CLR
22:13 33.3 °F 31.8 °F 30.4 in Calm     95 % 0 in 0.0 W/m2 CLR
22:19 33.1 °F 31.6 °F 30.4 in Calm     95 % 0 in 0.0 W/m2 CLR
22:24 32.9 °F 31.6 °F 30.4 in Calm     95 % 0 in 0.0 W/m2 CLR
22:29 32.7 °F 31.5 °F 30.4 in Calm     95 % 0 in 0.0 W/m2 CLR
22:34 32.4 °F 31.1 °F 30.4 in Calm     95 % 0 in 0.0 W/m2 CLR
22:39 32.4 °F 30.9 °F 30.4 in Calm     95 % 0 in 0.0 W/m2 CLR
22:44 32.2 °F 30.7 °F 30.4 in Calm     95 % 0 in 0.0 W/m2 CLR
22:49 31.8 °F 30.6 °F 30.4 in Calm     95 % 0 in 0.0 W/m2 CLR
22:54 32 °F 30.7 °F 30.4 in Calm     95 % 0 in 0.0 W/m2 CLR
22:59 32 °F 30.7 °F 30.4 in Calm     95 % 0 in 0.0 W/m2 CLR
23:04 31.8 °F 30.6 °F 30.4 in Calm     95 % 0 in 0.0 W/m2 CLR
23:09 31.8 °F 30.6 °F 30.4 in Calm     95 % 0 in 0.0 W/m2 CLR
23:14 31.6 °F 30.4 °F 30.4 in Calm     95 % 0 in 0.0 W/m2 CLR
23:19 31.5 °F 30.2 °F 30.4 in Calm     95 % 0 in 0.0 W/m2 CLR
23:24 31.5 °F 30.2 °F 30.4 in Calm     95 % 0 in 0.0 W/m2 CLR
23:29 31.5 °F 30 °F 30.4 in Calm     95 % 0 in 0.0 W/m2 CLR
23:34 31.3 °F 30 °F 30.4 in Calm     95 % 0 in 0.0 W/m2 CLR
23:39 31.3 °F 30 °F 30.4 in Calm     95 % 0 in 0.0 W/m2 CLR
23:44 31.3 °F 30 °F 30.4 in Calm     95 % 0 in 0.0 W/m2 CLR
23:49 31.3 °F 29.8 °F 30.4 in Calm     95 % 0 in 0.0 W/m2 CLR
23:54 31.1 °F 29.8 °F 30.4 in Calm     95 % 0 in 0.0 W/m2 CLR
23:59 31.1 °F 29.8 °F 30.4 in Calm     95 % 0 in 0.0 W/m2 CLR
Lo Temps de Massalio
Compliments of Weather Underground - 1.25 mb